You are listening to:
EPWR Twr/App - Wroclaw, Poland

EPWR 082000Z VRB01KT CAVOK 23/18 Q1020

If stream doesn't start automatically press the play button
If stream stops then reload player then press play